createdAt,value
2023-02-17T00:01:22.319Z,22.53
2023-02-17T00:06:29.232Z,22.51
2023-02-17T00:11:32.165Z,22.50
2023-02-17T00:16:36.355Z,22.47
2023-02-17T00:21:39.187Z,22.45
2023-02-17T00:26:41.928Z,22.40
2023-02-17T00:31:46.983Z,22.34
2023-02-17T00:36:49.834Z,22.35
2023-02-17T00:41:52.650Z,22.33
2023-02-17T00:46:58.161Z,22.29
2023-02-17T00:52:02.024Z,22.27
2023-02-17T00:57:04.997Z,22.24
2023-02-17T01:02:09.546Z,22.19
2023-02-17T01:12:15.713Z,22.12
2023-02-17T01:17:19.794Z,22.08
2023-02-17T01:22:22.600Z,22.03
2023-02-17T01:27:25.345Z,21.99
2023-02-17T01:32:31.180Z,21.98
2023-02-17T01:37:34.294Z,21.93
2023-02-17T01:42:37.071Z,21.88
2023-02-17T01:47:41.585Z,21.82
2023-02-17T01:52:45.221Z,21.79
2023-02-17T01:57:49.598Z,21.76
2023-02-17T02:02:54.404Z,21.72
2023-02-17T02:07:58.228Z,21.68
2023-02-17T02:13:01.189Z,21.64
2023-02-17T02:18:22.049Z,21.59
2023-02-17T02:23:54.265Z,21.55
2023-02-17T02:29:25.626Z,21.53
2023-02-17T02:34:35.503Z,21.49
2023-02-17T02:39:43.715Z,21.47
2023-02-17T02:44:46.843Z,21.43
2023-02-17T02:49:51.001Z,21.42
2023-02-17T02:55:01.498Z,21.39
2023-02-17T03:00:16.217Z,21.37
2023-02-17T03:05:31.043Z,21.35
2023-02-17T03:10:33.891Z,21.34
2023-02-17T03:15:36.828Z,21.32
2023-02-17T03:20:46.825Z,21.30
2023-02-17T03:25:49.574Z,21.28
2023-02-17T03:30:52.397Z,21.25
2023-02-17T03:35:56.490Z,21.25
2023-02-17T03:40:59.254Z,21.24
2023-02-17T03:46:02.372Z,21.23
2023-02-17T03:51:13.391Z,21.20
2023-02-17T03:56:16.402Z,21.17
2023-02-17T04:01:19.181Z,21.15
2023-02-17T04:06:23.430Z,21.16
2023-02-17T04:11:26.497Z,21.13
2023-02-17T04:16:29.391Z,21.11
2023-02-17T04:21:33.769Z,21.12
2023-02-17T04:26:36.548Z,21.09
2023-02-17T04:31:39.503Z,21.07
2023-02-17T04:36:44.411Z,20.99
2023-02-17T04:41:47.387Z,20.98
2023-02-17T04:46:50.160Z,21.01
2023-02-17T04:51:54.295Z,20.98
2023-02-17T04:56:57.050Z,20.98
2023-02-17T05:01:59.976Z,20.96
2023-02-17T05:07:04.597Z,20.96
2023-02-17T05:12:08.240Z,20.94
2023-02-17T05:17:11.119Z,20.93
2023-02-17T05:22:15.271Z,20.91
2023-02-17T05:27:18.041Z,20.90
2023-02-17T05:32:20.812Z,20.88
2023-02-17T05:37:24.957Z,20.88
2023-02-17T05:42:28.803Z,20.86
2023-02-17T05:47:31.612Z,20.85
2023-02-17T05:52:35.702Z,20.83
2023-02-17T05:57:38.489Z,20.82
2023-02-17T06:02:41.292Z,20.80
2023-02-17T06:07:45.400Z,20.79
2023-02-17T06:12:48.333Z,20.78
2023-02-17T06:17:51.135Z,20.77
2023-02-17T06:22:55.275Z,20.76
2023-02-17T06:27:58.108Z,20.74
2023-02-17T06:33:00.970Z,20.72
2023-02-17T06:38:05.488Z,20.70
2023-02-17T06:43:08.405Z,20.68
2023-02-17T06:48:11.318Z,20.68
2023-02-17T06:53:15.450Z,20.68
2023-02-17T06:58:18.227Z,20.64
2023-02-17T07:03:20.984Z,20.64
2023-02-17T07:08:25.336Z,20.64
2023-02-17T07:13:28.238Z,20.62
2023-02-17T07:18:30.989Z,20.60
2023-02-17T07:23:35.518Z,20.58
2023-02-17T07:28:39.276Z,20.60
2023-02-17T07:33:42.566Z,20.61
2023-02-17T07:38:47.001Z,20.58
2023-02-17T07:43:50.088Z,20.60
2023-02-17T07:48:53.367Z,20.57
2023-02-17T07:53:57.484Z,20.54
2023-02-17T07:59:00.315Z,20.57
2023-02-17T08:04:03.175Z,17.65
2023-02-17T08:09:25.474Z,16.46
2023-02-17T08:14:31.310Z,17.79
2023-02-17T08:19:47.383Z,18.72
2023-02-17T08:24:52.388Z,19.21
2023-02-17T08:29:55.892Z,19.52
2023-02-17T08:34:59.311Z,19.74
2023-02-17T08:40:03.588Z,19.92
2023-02-17T08:45:07.400Z,20.05
2023-02-17T08:50:15.867Z,20.16
2023-02-17T08:55:20.313Z,20.26
2023-02-17T09:00:23.446Z,20.33
2023-02-17T09:05:26.797Z,20.42
2023-02-17T09:10:31.127Z,20.48
2023-02-17T09:15:34.056Z,20.53
2023-02-17T09:20:37.222Z,20.57
2023-02-17T09:25:41.353Z,20.60
2023-02-17T09:30:44.135Z,20.64
2023-02-17T09:35:47.110Z,20.66
2023-02-17T09:40:51.571Z,20.70
2023-02-17T09:46:01.476Z,20.73
2023-02-17T09:51:12.253Z,20.77
2023-02-17T09:56:21.423Z,20.80
2023-02-17T10:01:29.598Z,20.80
2023-02-17T10:06:36.657Z,20.82
2023-02-17T10:11:45.208Z,20.84
2023-02-17T10:16:52.393Z,20.88
2023-02-17T10:22:03.521Z,20.87
2023-02-17T10:27:22.809Z,20.88
2023-02-17T10:32:27.951Z,20.87
2023-02-17T10:37:42.331Z,19.96
2023-02-17T10:42:48.809Z,18.85
2023-02-17T10:47:57.683Z,18.15
2023-02-17T10:53:00.461Z,17.74
2023-02-17T10:58:15.040Z,17.61
2023-02-17T11:03:21.388Z,17.26
2023-02-17T11:08:33.538Z,17.09
2023-02-17T11:13:42.293Z,17.99
2023-02-17T11:18:50.757Z,18.57
2023-02-17T11:23:58.086Z,18.95
2023-02-17T11:29:17.663Z,19.25
2023-02-17T11:34:24.615Z,19.46
2023-02-17T11:39:28.318Z,19.63
2023-02-17T11:44:32.484Z,19.78
2023-02-17T11:49:56.286Z,19.89
2023-02-17T11:55:17.202Z,20.02
2023-02-17T12:00:24.093Z,20.19
2023-02-17T12:05:31.513Z,20.34
2023-02-17T12:10:48.615Z,20.51
2023-02-17T12:16:09.631Z,20.69
2023-02-17T12:21:20.647Z,20.86
2023-02-17T12:26:32.545Z,20.98
2023-02-17T12:31:55.221Z,21.10
2023-02-17T12:36:59.948Z,21.20
2023-02-17T12:42:08.279Z,21.29
2023-02-17T12:47:17.190Z,21.36
2023-02-17T12:52:27.099Z,21.44
2023-02-17T12:57:41.097Z,21.50
2023-02-17T13:02:45.559Z,21.59
2023-02-17T13:07:55.593Z,21.67
2023-02-17T13:13:04.898Z,21.73
2023-02-17T13:18:14.010Z,21.80
2023-02-17T13:23:29.637Z,21.86
2023-02-17T13:28:37.285Z,21.92
2023-02-17T13:33:48.378Z,21.96
2023-02-17T13:38:57.326Z,22.02
2023-02-17T13:44:00.277Z,22.08
2023-02-17T13:49:07.620Z,22.10
2023-02-17T13:54:13.366Z,22.16
2023-02-17T13:59:18.792Z,22.23
2023-02-17T14:04:27.154Z,22.29
2023-02-17T14:09:32.961Z,22.26
2023-02-17T14:14:38.133Z,22.26
2023-02-17T14:19:47.267Z,22.25
2023-02-17T14:24:59.726Z,22.25
2023-02-17T14:30:05.411Z,22.13
2023-02-17T14:35:22.150Z,22.22
2023-02-17T14:40:25.926Z,22.31
2023-02-17T14:45:28.996Z,22.22
2023-02-17T14:50:34.888Z,22.43
2023-02-17T14:55:43.072Z,22.43
2023-02-17T15:00:45.864Z,22.47
2023-02-17T15:05:50.458Z,22.44
2023-02-17T15:10:53.410Z,22.47
2023-02-17T15:15:56.376Z,22.50
2023-02-17T15:21:00.596Z,22.63
2023-02-17T15:26:03.499Z,22.61
2023-02-17T15:31:07.567Z,22.56
2023-02-17T15:36:17.880Z,22.60
2023-02-17T15:41:23.859Z,22.62
2023-02-17T15:46:32.017Z,22.57
2023-02-17T15:51:36.479Z,22.60
2023-02-17T15:56:43.276Z,22.52
2023-02-17T16:01:46.272Z,22.61
2023-02-17T16:06:50.411Z,22.64
2023-02-17T16:11:57.317Z,22.67
2023-02-17T16:17:00.303Z,22.66
2023-02-17T16:22:04.535Z,22.66
2023-02-17T16:27:09.514Z,22.59
2023-02-17T16:32:13.625Z,22.53
2023-02-17T16:37:18.768Z,22.64
2023-02-17T16:42:21.600Z,22.66
2023-02-17T16:47:24.560Z,22.62
2023-02-17T16:52:28.957Z,22.66
2023-02-17T16:57:31.909Z,22.69
2023-02-17T17:02:34.782Z,22.71
2023-02-17T17:07:40.093Z,22.75
2023-02-17T17:12:43.372Z,22.82
2023-02-17T17:17:51.814Z,22.85
2023-02-17T17:22:56.021Z,22.77
2023-02-17T17:27:59.253Z,22.71
2023-02-17T17:33:02.493Z,22.82
2023-02-17T17:38:06.945Z,22.86
2023-02-17T17:43:09.906Z,22.84
2023-02-17T17:48:14.529Z,22.86
2023-02-17T17:53:18.882Z,22.82
2023-02-17T17:58:21.669Z,22.84
2023-02-17T18:03:24.733Z,22.77
2023-02-17T18:08:29.431Z,22.85
2023-02-17T18:13:34.496Z,22.87
2023-02-17T18:18:38.110Z,22.86
2023-02-17T18:23:42.376Z,22.77
2023-02-17T18:28:45.414Z,22.79
2023-02-17T18:33:48.724Z,22.79
2023-02-17T18:38:53.268Z,22.72
2023-02-17T18:43:56.997Z,22.78
2023-02-17T18:49:00.485Z,22.77
2023-02-17T18:54:10.642Z,22.69
2023-02-17T18:59:13.496Z,22.69
2023-02-17T19:04:16.536Z,22.67
2023-02-17T19:09:20.717Z,22.66
2023-02-17T19:14:23.818Z,22.71
2023-02-17T19:19:29.703Z,22.67
2023-02-17T19:24:33.785Z,22.62
2023-02-17T19:29:37.153Z,22.58
2023-02-17T19:34:40.207Z,22.68
2023-02-17T19:39:45.461Z,22.57
2023-02-17T19:44:48.966Z,22.66
2023-02-17T19:49:51.820Z,22.62
2023-02-17T19:54:56.373Z,22.58
2023-02-17T19:59:59.269Z,22.61
2023-02-17T20:05:02.198Z,22.64
2023-02-17T20:10:10.635Z,22.68
2023-02-17T20:15:13.514Z,22.76
2023-02-17T20:20:16.487Z,22.64
2023-02-17T20:25:20.953Z,22.72
2023-02-17T20:30:23.943Z,22.69
2023-02-17T20:35:26.979Z,22.71
2023-02-17T20:40:31.343Z,22.62
2023-02-17T20:45:34.223Z,22.74
2023-02-17T20:50:37.274Z,22.61
2023-02-17T20:55:41.491Z,22.64
2023-02-17T21:00:44.363Z,22.68
2023-02-17T21:05:47.967Z,22.61
2023-02-17T21:10:52.456Z,22.65
2023-02-17T21:15:55.334Z,22.87
2023-02-17T21:20:58.239Z,22.83
2023-02-17T21:26:02.899Z,22.63
2023-02-17T21:31:06.780Z,22.66
2023-02-17T21:36:11.205Z,22.64
2023-02-17T21:41:17.804Z,22.61
2023-02-17T21:46:21.940Z,22.68
2023-02-17T21:51:25.322Z,22.64
2023-02-17T21:56:29.691Z,22.69
2023-02-17T22:01:32.609Z,22.69
2023-02-17T22:06:37.209Z,22.63
2023-02-17T22:11:43.742Z,22.83
2023-02-17T22:16:47.208Z,22.74
2023-02-17T22:21:51.466Z,22.83
2023-02-17T22:26:56.153Z,22.85
2023-02-17T22:31:59.004Z,22.82
2023-02-17T22:37:02.132Z,22.77
2023-02-17T22:42:07.476Z,22.65
2023-02-17T22:47:10.298Z,22.69
2023-02-17T22:52:13.089Z,22.63
2023-02-17T22:57:17.198Z,22.61
2023-02-17T23:02:20.048Z,22.61
2023-02-17T23:07:23.773Z,22.58
2023-02-17T23:12:27.939Z,22.55
2023-02-17T23:17:51.896Z,22.57
2023-02-17T23:22:54.709Z,22.61
2023-02-17T23:27:58.862Z,22.46
2023-02-17T23:33:01.668Z,22.53
2023-02-17T23:38:04.676Z,22.41
2023-02-17T23:43:10.170Z,22.40
2023-02-17T23:48:13.481Z,22.34
2023-02-17T23:53:16.406Z,22.43
2023-02-17T23:58:20.569Z,22.44
